createdAt,value
2024-01-29T00:00:06.211Z,100.00
2024-01-29T00:02:37.204Z,100.00
2024-01-29T00:05:05.608Z,100.00
2024-01-29T00:07:33.751Z,100.00
2024-01-29T00:10:03.669Z,100.00
2024-01-29T00:12:31.882Z,100.00
2024-01-29T00:15:00.058Z,100.00
2024-01-29T00:17:28.201Z,100.00
2024-01-29T00:19:56.454Z,100.00
2024-01-29T00:22:24.750Z,100.00
2024-01-29T00:24:52.892Z,100.00
2024-01-29T00:27:22.538Z,100.00
2024-01-29T00:29:50.650Z,100.00
2024-01-29T00:32:19.006Z,100.00
2024-01-29T00:34:47.676Z,100.00
2024-01-29T00:37:15.939Z,100.00
2024-01-29T00:39:44.500Z,100.00
2024-01-29T00:42:12.722Z,100.00
2024-01-29T00:44:42.183Z,100.00
2024-01-29T00:47:10.498Z,100.00
2024-01-29T00:49:39.029Z,100.00
2024-01-29T00:52:08.175Z,100.00
2024-01-29T00:54:36.495Z,100.00
2024-01-29T00:57:04.902Z,100.00
2024-01-29T00:59:33.080Z,100.00
2024-01-29T01:02:02.499Z,100.00
2024-01-29T01:04:30.691Z,100.00
2024-01-29T01:06:58.897Z,100.00
2024-01-29T01:09:27.059Z,100.00
2024-01-29T01:11:55.166Z,100.00
2024-01-29T01:14:23.416Z,100.00
2024-01-29T01:16:52.201Z,100.00
2024-01-29T01:19:21.728Z,100.00
2024-01-29T01:21:50.171Z,100.00
2024-01-29T01:24:18.454Z,100.00
2024-01-29T01:26:46.607Z,100.00
2024-01-29T01:29:14.754Z,100.00
2024-01-29T01:31:42.957Z,100.00
2024-01-29T01:34:11.126Z,100.00
2024-01-29T01:36:40.749Z,100.00
2024-01-29T01:39:09.815Z,100.00
2024-01-29T01:41:37.983Z,100.00
2024-01-29T01:44:06.342Z,100.00
2024-01-29T01:46:34.633Z,100.00
2024-01-29T01:49:02.917Z,100.00
2024-01-29T01:51:31.129Z,100.00
2024-01-29T01:54:03.133Z,100.00
2024-01-29T01:56:33.328Z,100.00
2024-01-29T01:59:02.734Z,100.00
2024-01-29T02:01:31.540Z,100.00
2024-01-29T02:06:53.068Z,100.00
2024-01-29T02:09:21.352Z,100.00
2024-01-29T02:11:49.590Z,100.00
2024-01-29T02:14:17.848Z,100.00
2024-01-29T02:16:45.986Z,100.00
2024-01-29T02:19:17.617Z,100.00
2024-01-29T02:21:46.733Z,100.00
2024-01-29T02:24:16.366Z,100.00
2024-01-29T02:26:47.701Z,100.00
2024-01-29T02:29:15.973Z,100.00
2024-01-29T02:31:44.139Z,100.00
2024-01-29T02:34:12.641Z,100.00
2024-01-29T02:36:40.883Z,100.00
2024-01-29T02:39:09.604Z,100.00
2024-01-29T02:41:39.070Z,100.00
2024-01-29T02:44:08.080Z,100.00
2024-01-29T02:46:36.169Z,100.00
2024-01-29T02:49:04.528Z,100.00
2024-01-29T02:51:38.359Z,100.00
2024-01-29T02:54:06.690Z,100.00
2024-01-29T02:56:34.747Z,100.00
2024-01-29T02:59:04.183Z,100.00
2024-01-29T03:01:32.401Z,100.00
2024-01-29T03:04:00.875Z,100.00
2024-01-29T03:06:29.097Z,100.00
2024-01-29T03:08:57.285Z,100.00
2024-01-29T03:11:25.323Z,100.00
2024-01-29T03:13:53.422Z,100.00
2024-01-29T03:16:22.865Z,100.00
2024-01-29T03:18:51.094Z,100.00
2024-01-29T03:21:19.379Z,100.00
2024-01-29T03:23:47.587Z,100.00
2024-01-29T03:26:15.599Z,100.00
2024-01-29T03:28:43.756Z,100.00
2024-01-29T03:31:12.029Z,100.00
2024-01-29T03:33:41.644Z,100.00
2024-01-29T03:36:10.495Z,100.00
2024-01-29T03:38:38.597Z,100.00
2024-01-29T03:41:06.665Z,100.00
2024-01-29T03:43:34.799Z,100.00
2024-01-29T03:46:03.122Z,100.00
2024-01-29T03:48:31.882Z,100.00
2024-01-29T03:51:01.422Z,100.00
2024-01-29T03:53:29.725Z,100.00
2024-01-29T03:55:58.422Z,100.00
2024-01-29T03:58:26.522Z,100.00
2024-01-29T04:00:55.185Z,100.00
2024-01-29T04:03:23.480Z,100.00
2024-01-29T04:05:51.786Z,100.00
2024-01-29T04:08:22.781Z,100.00
2024-01-29T04:10:50.986Z,100.00
2024-01-29T04:13:19.219Z,100.00
2024-01-29T04:15:47.299Z,100.00
2024-01-29T04:18:15.611Z,100.00
2024-01-29T04:20:43.700Z,100.00
2024-01-29T04:23:11.845Z,100.00
2024-01-29T04:25:41.222Z,100.00
2024-01-29T04:28:09.411Z,100.00
2024-01-29T04:30:37.628Z,100.00
2024-01-29T04:33:06.285Z,100.00
2024-01-29T04:35:34.330Z,100.00
2024-01-29T04:38:02.481Z,100.00
2024-01-29T04:40:30.550Z,100.00
2024-01-29T04:43:00.043Z,100.00
2024-01-29T04:45:28.252Z,100.00
2024-01-29T04:47:56.510Z,100.00
2024-01-29T04:50:24.838Z,100.00
2024-01-29T04:52:53.118Z,100.00
2024-01-29T04:55:21.365Z,100.00
2024-01-29T04:57:49.566Z,100.00
2024-01-29T05:00:19.493Z,100.00
2024-01-29T05:02:49.036Z,100.00
2024-01-29T05:05:17.634Z,100.00
2024-01-29T05:07:45.800Z,100.00
2024-01-29T05:10:14.220Z,100.00
2024-01-29T05:12:42.385Z,100.00
2024-01-29T05:15:12.819Z,100.00
2024-01-29T05:17:42.257Z,100.00
2024-01-29T05:20:11.381Z,100.00
2024-01-29T05:22:39.547Z,100.00
2024-01-29T05:25:08.147Z,100.00
2024-01-29T05:27:36.210Z,100.00
2024-01-29T05:30:04.695Z,100.00
2024-01-29T05:32:32.909Z,100.00
2024-01-29T05:35:03.675Z,100.00
2024-01-29T05:37:33.372Z,100.00
2024-01-29T05:40:01.600Z,100.00
2024-01-29T05:42:29.807Z,100.00
2024-01-29T05:44:57.881Z,100.00
2024-01-29T05:47:26.052Z,100.00
2024-01-29T05:49:54.308Z,100.00
2024-01-29T05:52:24.101Z,100.00
2024-01-29T05:54:52.320Z,100.00
2024-01-29T05:57:21.550Z,100.00
2024-01-29T05:59:49.570Z,100.00
2024-01-29T06:02:17.703Z,100.00
2024-01-29T06:04:45.828Z,100.00
2024-01-29T06:07:14.029Z,100.00
2024-01-29T06:09:43.575Z,100.00
2024-01-29T06:12:11.648Z,100.00
2024-01-29T06:14:39.662Z,100.00
2024-01-29T06:17:07.841Z,100.00
2024-01-29T06:19:48.453Z,100.00
2024-01-29T06:22:24.744Z,100.00
2024-01-29T06:24:54.258Z,100.00
2024-01-29T06:27:22.936Z,100.00
2024-01-29T06:29:51.068Z,100.00
2024-01-29T06:32:19.164Z,100.00
2024-01-29T06:34:47.390Z,100.00
2024-01-29T06:37:15.632Z,100.00
2024-01-29T06:39:43.690Z,100.00
2024-01-29T06:42:13.139Z,100.00
2024-01-29T06:44:43.103Z,100.00
2024-01-29T06:47:11.137Z,100.00
2024-01-29T06:49:42.161Z,100.00
2024-01-29T06:52:13.947Z,100.00
2024-01-29T06:54:44.921Z,100.00
2024-01-29T06:57:15.174Z,100.00
2024-01-29T06:59:43.423Z,100.00
2024-01-29T07:02:12.132Z,100.00
2024-01-29T07:07:49.510Z,100.00
2024-01-29T07:10:17.839Z,100.00
2024-01-29T07:12:46.168Z,100.00
2024-01-29T07:15:16.664Z,100.00
2024-01-29T07:17:44.897Z,100.00
2024-01-29T07:20:14.167Z,100.00
2024-01-29T07:22:43.610Z,100.00
2024-01-29T07:25:13.204Z,100.00
2024-01-29T07:27:41.305Z,100.00
2024-01-29T07:30:10.224Z,100.00
2024-01-29T07:32:38.416Z,100.00
2024-01-29T07:35:08.048Z,100.00
2024-01-29T07:37:36.288Z,100.00
2024-01-29T07:40:05.427Z,100.00
2024-01-29T07:42:34.852Z,100.00
2024-01-29T07:45:03.080Z,100.00
2024-01-29T07:47:32.349Z,100.00
2024-01-29T07:50:00.506Z,100.00
2024-01-29T07:52:28.712Z,100.00
2024-01-29T07:54:56.814Z,100.00
2024-01-29T07:57:24.905Z,100.00
2024-01-29T07:59:54.331Z,100.00
2024-01-29T08:02:22.660Z,100.00
2024-01-29T08:04:50.905Z,100.00
2024-01-29T08:07:19.147Z,100.00
2024-01-29T08:09:47.365Z,100.00
2024-01-29T08:12:15.534Z,100.00
2024-01-29T08:14:43.666Z,100.00
2024-01-29T08:17:13.338Z,100.00
2024-01-29T08:19:41.626Z,100.00
2024-01-29T08:22:10.322Z,100.00
2024-01-29T08:24:39.803Z,100.00
2024-01-29T08:27:07.902Z,100.00
2024-01-29T08:29:35.976Z,100.00
2024-01-29T08:32:05.326Z,100.00
2024-01-29T08:34:34.825Z,100.00
2024-01-29T08:37:03.458Z,100.00
2024-01-29T08:39:32.208Z,100.00
2024-01-29T08:42:00.424Z,100.00
2024-01-29T08:44:29.072Z,100.00
2024-01-29T08:46:57.268Z,100.00
2024-01-29T08:49:26.417Z,100.00
2024-01-29T08:51:56.202Z,100.00
2024-01-29T08:54:24.517Z,100.00
2024-01-29T08:56:52.647Z,100.00
2024-01-29T08:59:22.312Z,100.00
2024-01-29T09:01:50.614Z,100.00
2024-01-29T09:04:19.004Z,100.00
2024-01-29T09:06:47.225Z,100.00
2024-01-29T09:09:16.837Z,100.00
2024-01-29T09:11:47.118Z,100.00
2024-01-29T09:14:15.473Z,100.00
2024-01-29T09:16:43.513Z,100.00
2024-01-29T09:19:12.411Z,99.59
2024-01-29T09:21:42.185Z,98.49
2024-01-29T09:24:10.307Z,100.00
2024-01-29T09:26:39.830Z,100.00
2024-01-29T09:29:08.062Z,100.00
2024-01-29T09:31:36.278Z,100.00
2024-01-29T09:34:05.034Z,97.85
2024-01-29T09:36:33.461Z,98.38
2024-01-29T09:39:02.313Z,99.31
2024-01-29T09:41:35.440Z,97.86
2024-01-29T09:44:08.129Z,100.00
2024-01-29T09:46:39.877Z,98.25
2024-01-29T09:49:08.561Z,100.00
2024-01-29T09:51:37.598Z,99.03
2024-01-29T09:54:06.561Z,99.75
2024-01-29T09:56:34.819Z,100.00
2024-01-29T09:59:03.172Z,100.00
2024-01-29T10:01:33.794Z,98.31
2024-01-29T10:04:02.101Z,96.86
2024-01-29T10:06:32.636Z,96.19
2024-01-29T10:09:02.010Z,94.69
2024-01-29T10:11:30.520Z,92.83
2024-01-29T10:14:02.169Z,91.66
2024-01-29T10:16:32.381Z,90.24
2024-01-29T10:19:01.921Z,88.39
2024-01-29T10:21:38.494Z,87.51
2024-01-29T10:24:14.293Z,89.48
2024-01-29T10:26:42.607Z,90.21
2024-01-29T10:29:10.912Z,90.06
2024-01-29T10:31:41.761Z,87.87
2024-01-29T10:34:10.374Z,85.96
2024-01-29T10:36:41.122Z,84.72
2024-01-29T10:39:09.718Z,84.56
2024-01-29T10:41:38.297Z,85.92
2024-01-29T10:44:07.002Z,85.04
2024-01-29T10:46:38.398Z,87.93
2024-01-29T10:49:09.158Z,86.28
2024-01-29T10:51:38.479Z,84.80
2024-01-29T10:54:08.317Z,83.10
2024-01-29T10:56:38.420Z,83.42
2024-01-29T10:59:07.825Z,78.77
2024-01-29T11:01:38.356Z,80.33
2024-01-29T11:04:12.251Z,77.98
2024-01-29T11:06:47.174Z,78.73
2024-01-29T11:09:19.911Z,74.46
2024-01-29T11:11:49.855Z,75.73
2024-01-29T11:14:22.563Z,75.93
2024-01-29T11:16:52.887Z,77.84
2024-01-29T11:19:25.535Z,76.78
2024-01-29T11:21:54.185Z,75.84
2024-01-29T11:24:24.389Z,76.35
2024-01-29T11:26:53.901Z,72.22
2024-01-29T11:29:24.071Z,70.59
2024-01-29T11:31:54.633Z,68.85
2024-01-29T11:34:29.890Z,70.24
2024-01-29T11:36:58.473Z,72.17
2024-01-29T11:39:28.783Z,73.37
2024-01-29T11:41:57.096Z,71.00
2024-01-29T11:44:25.879Z,69.45
2024-01-29T11:46:56.425Z,68.00
2024-01-29T11:49:26.692Z,69.26
2024-01-29T11:51:57.501Z,70.16
2024-01-29T11:54:26.709Z,70.43
2024-01-29T11:56:54.839Z,71.06
2024-01-29T11:59:23.032Z,72.08
2024-01-29T12:01:52.495Z,71.73
2024-01-29T12:04:20.925Z,73.75
2024-01-29T12:08:51.786Z,72.18
2024-01-29T12:11:22.074Z,73.62
2024-01-29T12:13:50.309Z,73.10
2024-01-29T12:16:19.394Z,74.67
2024-01-29T12:18:48.003Z,75.01
2024-01-29T12:21:16.113Z,81.49
2024-01-29T12:23:44.363Z,81.98
2024-01-29T12:26:14.757Z,81.96
2024-01-29T12:28:43.047Z,85.68
2024-01-29T12:31:12.564Z,88.44
2024-01-29T12:33:48.278Z,88.35
2024-01-29T12:36:18.792Z,90.36
2024-01-29T12:38:53.511Z,87.04
2024-01-29T12:41:23.642Z,85.04
2024-01-29T12:43:53.039Z,82.52
2024-01-29T12:46:21.726Z,83.05
2024-01-29T12:48:50.156Z,86.39
2024-01-29T12:51:18.401Z,87.94
2024-01-29T12:53:56.465Z,87.42
2024-01-29T12:56:29.100Z,88.58
2024-01-29T12:58:57.464Z,90.74
2024-01-29T13:01:26.934Z,92.71
2024-01-29T13:03:55.920Z,94.41
2024-01-29T13:06:25.124Z,93.54
2024-01-29T13:08:53.316Z,93.82
2024-01-29T13:11:21.389Z,93.90
2024-01-29T13:13:51.148Z,97.10
2024-01-29T13:16:20.017Z,96.32
2024-01-29T13:18:48.596Z,98.08
2024-01-29T13:21:19.076Z,99.56
2024-01-29T13:23:48.551Z,99.64
2024-01-29T13:26:17.878Z,99.90
2024-01-29T13:28:47.315Z,100.00
2024-01-29T13:31:16.904Z,100.00
2024-01-29T13:33:45.159Z,100.00
2024-01-29T13:36:13.356Z,100.00
2024-01-29T13:38:41.483Z,100.00
2024-01-29T13:41:10.399Z,100.00
2024-01-29T13:43:38.667Z,100.00
2024-01-29T13:46:06.994Z,100.00
2024-01-29T13:48:37.935Z,100.00
2024-01-29T13:51:06.663Z,100.00
2024-01-29T13:53:34.904Z,100.00
2024-01-29T13:56:03.026Z,100.00
2024-01-29T13:58:31.483Z,100.00
2024-01-29T14:00:59.927Z,100.00
2024-01-29T14:03:28.340Z,100.00
2024-01-29T14:05:58.961Z,100.00
2024-01-29T14:08:27.100Z,100.00
2024-01-29T14:10:55.205Z,100.00
2024-01-29T14:13:23.407Z,100.00
2024-01-29T14:15:51.755Z,100.00
2024-01-29T14:18:20.464Z,100.00
2024-01-29T14:20:48.632Z,100.00
2024-01-29T14:23:18.185Z,100.00
2024-01-29T14:25:46.420Z,100.00
2024-01-29T14:28:17.017Z,100.00
2024-01-29T14:30:45.793Z,100.00
2024-01-29T14:33:14.098Z,100.00
2024-01-29T14:35:42.607Z,100.00
2024-01-29T14:38:11.271Z,100.00
2024-01-29T14:40:41.148Z,100.00
2024-01-29T14:43:10.302Z,100.00
2024-01-29T14:45:40.334Z,100.00
2024-01-29T14:48:09.468Z,100.00
2024-01-29T14:50:37.763Z,100.00
2024-01-29T14:53:06.688Z,100.00
2024-01-29T14:55:35.374Z,100.00
2024-01-29T14:58:05.391Z,100.00
2024-01-29T15:00:34.173Z,100.00
2024-01-29T15:03:03.298Z,100.00
2024-01-29T15:05:32.254Z,100.00
2024-01-29T15:08:00.581Z,100.00
2024-01-29T15:10:28.864Z,100.00
2024-01-29T15:12:57.083Z,100.00
2024-01-29T15:15:27.425Z,100.00
2024-01-29T15:17:55.820Z,100.00
2024-01-29T15:20:24.129Z,100.00
2024-01-29T15:22:53.059Z,100.00
2024-01-29T15:25:21.335Z,100.00
2024-01-29T15:27:49.617Z,100.00
2024-01-29T15:30:17.984Z,100.00
2024-01-29T15:32:47.656Z,100.00
2024-01-29T15:35:16.137Z,100.00
2024-01-29T15:37:44.465Z,100.00
2024-01-29T15:40:13.999Z,100.00
2024-01-29T15:42:42.112Z,100.00
2024-01-29T15:45:10.987Z,100.00
2024-01-29T15:47:39.456Z,100.00
2024-01-29T15:50:10.233Z,100.00
2024-01-29T15:52:38.558Z,100.00
2024-01-29T15:55:07.256Z,100.00
2024-01-29T15:57:35.532Z,100.00
2024-01-29T16:00:05.345Z,100.00
2024-01-29T16:02:34.720Z,100.00
2024-01-29T16:05:02.963Z,100.00
2024-01-29T16:07:35.775Z,100.00
2024-01-29T16:10:04.645Z,100.00
2024-01-29T16:12:32.984Z,100.00
2024-01-29T16:15:01.200Z,100.00
2024-01-29T16:17:30.678Z,100.00
2024-01-29T16:19:59.218Z,100.00
2024-01-29T16:22:27.991Z,100.00
2024-01-29T16:24:57.641Z,100.00
2024-01-29T16:27:26.465Z,100.00
2024-01-29T16:29:55.884Z,100.00
2024-01-29T16:32:24.074Z,100.00
2024-01-29T16:34:52.384Z,100.00
2024-01-29T16:37:20.669Z,100.00
2024-01-29T16:39:49.073Z,100.00
2024-01-29T16:42:18.776Z,100.00
2024-01-29T16:44:48.122Z,100.00
2024-01-29T16:47:16.866Z,100.00
2024-01-29T16:49:48.344Z,100.00
2024-01-29T16:52:17.154Z,100.00
2024-01-29T16:54:45.673Z,100.00
2024-01-29T16:57:13.827Z,100.00
2024-01-29T16:59:43.318Z,100.00
2024-01-29T17:02:13.174Z,100.00
2024-01-29T17:04:41.465Z,100.00
2024-01-29T17:09:50.305Z,100.00
2024-01-29T17:12:18.492Z,100.00
2024-01-29T17:14:48.891Z,100.00
2024-01-29T17:17:17.492Z,100.00
2024-01-29T17:19:46.321Z,100.00
2024-01-29T17:22:14.736Z,100.00
2024-01-29T17:24:44.984Z,100.00
2024-01-29T17:27:14.523Z,100.00
2024-01-29T17:29:42.754Z,100.00
2024-01-29T17:32:10.861Z,100.00
2024-01-29T17:34:40.192Z,100.00
2024-01-29T17:37:08.907Z,100.00
2024-01-29T17:39:38.825Z,100.00
2024-01-29T17:42:09.325Z,100.00
2024-01-29T17:44:41.762Z,100.00
2024-01-29T17:47:10.167Z,100.00
2024-01-29T17:49:38.697Z,100.00
2024-01-29T17:52:08.271Z,100.00
2024-01-29T17:54:36.447Z,100.00
2024-01-29T17:57:04.921Z,100.00
2024-01-29T17:59:33.047Z,100.00
2024-01-29T18:02:03.475Z,100.00
2024-01-29T18:04:31.971Z,100.00
2024-01-29T18:07:00.408Z,100.00
2024-01-29T18:09:28.786Z,100.00
2024-01-29T18:11:56.903Z,100.00
2024-01-29T18:14:25.950Z,100.00
2024-01-29T18:16:54.075Z,100.00
2024-01-29T18:19:24.165Z,100.00
2024-01-29T18:21:52.299Z,100.00
2024-01-29T18:24:21.220Z,100.00
2024-01-29T18:26:49.493Z,100.00
2024-01-29T18:29:18.044Z,100.00
2024-01-29T18:31:46.458Z,100.00
2024-01-29T18:34:14.803Z,100.00
2024-01-29T18:36:44.439Z,100.00
2024-01-29T18:39:13.926Z,100.00
2024-01-29T18:41:42.123Z,100.00
2024-01-29T18:44:10.427Z,100.00
2024-01-29T18:46:39.060Z,100.00
2024-01-29T18:49:07.343Z,100.00
2024-01-29T18:51:35.773Z,100.00
2024-01-29T18:54:05.371Z,100.00
2024-01-29T18:56:34.586Z,100.00
2024-01-29T18:59:04.336Z,100.00
2024-01-29T19:01:32.798Z,100.00
2024-01-29T19:04:03.802Z,100.00
2024-01-29T19:06:33.017Z,100.00
2024-01-29T19:09:01.321Z,100.00
2024-01-29T19:11:32.160Z,100.00
2024-01-29T19:14:00.379Z,100.00
2024-01-29T19:16:28.512Z,100.00
2024-01-29T19:18:57.297Z,100.00
2024-01-29T19:21:25.853Z,100.00
2024-01-29T19:23:54.091Z,100.00
2024-01-29T19:26:23.258Z,100.00
2024-01-29T19:28:53.391Z,100.00
2024-01-29T19:31:22.659Z,100.00
2024-01-29T19:33:51.054Z,100.00
2024-01-29T19:36:19.444Z,100.00
2024-01-29T19:38:47.655Z,100.00
2024-01-29T19:41:15.898Z,100.00
2024-01-29T19:43:44.153Z,100.00
2024-01-29T19:46:14.049Z,100.00
2024-01-29T19:48:42.694Z,100.00
2024-01-29T19:51:10.966Z,100.00
2024-01-29T19:53:41.978Z,100.00
2024-01-29T19:56:10.279Z,100.00
2024-01-29T19:58:38.699Z,100.00
2024-01-29T20:01:08.615Z,100.00
2024-01-29T20:03:38.521Z,100.00
2024-01-29T20:06:07.676Z,100.00
2024-01-29T20:08:36.002Z,100.00
2024-01-29T20:11:05.948Z,100.00
2024-01-29T20:13:35.349Z,100.00
2024-01-29T20:16:04.420Z,100.00
2024-01-29T20:18:34.284Z,100.00
2024-01-29T20:21:04.311Z,100.00
2024-01-29T20:23:32.521Z,100.00
2024-01-29T20:26:01.762Z,100.00
2024-01-29T20:28:30.636Z,100.00
2024-01-29T20:30:59.448Z,100.00
2024-01-29T20:33:26.773Z,100.00
2024-01-29T20:35:56.757Z,100.00
2024-01-29T20:38:26.485Z,100.00
2024-01-29T20:40:54.918Z,100.00
2024-01-29T20:43:23.332Z,100.00
2024-01-29T20:45:52.072Z,100.00
2024-01-29T20:48:20.346Z,100.00
2024-01-29T20:50:48.644Z,100.00
2024-01-29T20:53:16.875Z,100.00
2024-01-29T20:55:46.636Z,100.00
2024-01-29T20:58:15.858Z,100.00
2024-01-29T21:00:44.660Z,100.00
2024-01-29T21:03:13.205Z,100.00
2024-01-29T21:05:41.715Z,100.00
2024-01-29T21:08:13.422Z,100.00
2024-01-29T21:10:41.938Z,100.00
2024-01-29T21:13:11.468Z,100.00
2024-01-29T21:15:39.704Z,100.00
2024-01-29T21:18:08.776Z,100.00
2024-01-29T21:20:36.995Z,100.00
2024-01-29T21:23:05.491Z,100.00
2024-01-29T21:25:33.859Z,100.00
2024-01-29T21:28:02.211Z,100.00
2024-01-29T21:30:31.963Z,100.00
2024-01-29T21:33:00.444Z,100.00
2024-01-29T21:35:30.437Z,100.00
2024-01-29T21:37:59.064Z,100.00
2024-01-29T21:40:27.436Z,100.00
2024-01-29T21:42:55.661Z,100.00
2024-01-29T21:45:23.911Z,100.00
2024-01-29T21:47:53.397Z,100.00
2024-01-29T21:50:21.579Z,100.00
2024-01-29T21:52:49.697Z,100.00
2024-01-29T21:55:19.609Z,100.00
2024-01-29T21:57:47.851Z,100.00
2024-01-29T22:00:16.356Z,100.00
2024-01-29T22:02:44.647Z,100.00
2024-01-29T22:05:14.180Z,100.00
2024-01-29T22:10:49.567Z,100.00
2024-01-29T22:13:17.889Z,100.00
2024-01-29T22:15:46.375Z,100.00
2024-01-29T22:18:14.823Z,100.00
2024-01-29T22:20:43.167Z,100.00
2024-01-29T22:23:11.303Z,100.00
2024-01-29T22:25:40.630Z,100.00
2024-01-29T22:28:10.428Z,100.00
2024-01-29T22:30:38.696Z,100.00
2024-01-29T22:33:07.907Z,100.00
2024-01-29T22:35:36.647Z,100.00
2024-01-29T22:38:04.869Z,100.00
2024-01-29T22:40:33.373Z,100.00
2024-01-29T22:43:01.567Z,100.00
2024-01-29T22:45:30.998Z,100.00
2024-01-29T22:48:00.784Z,100.00
2024-01-29T22:50:29.337Z,100.00
2024-01-29T22:52:57.820Z,100.00
2024-01-29T22:55:26.250Z,100.00
2024-01-29T22:57:54.328Z,100.00
2024-01-29T23:00:25.838Z,100.00
2024-01-29T23:02:55.700Z,100.00
2024-01-29T23:05:24.040Z,100.00
2024-01-29T23:07:53.767Z,100.00
2024-01-29T23:10:22.424Z,100.00
2024-01-29T23:12:51.089Z,100.00
2024-01-29T23:15:19.873Z,100.00
2024-01-29T23:17:48.146Z,100.00
2024-01-29T23:20:17.797Z,100.00
2024-01-29T23:22:46.025Z,100.00
2024-01-29T23:25:14.252Z,100.00
2024-01-29T23:27:42.496Z,100.00
2024-01-29T23:30:11.543Z,100.00
2024-01-29T23:32:40.320Z,100.00
2024-01-29T23:35:09.575Z,100.00
2024-01-29T23:37:38.976Z,100.00
2024-01-29T23:40:09.298Z,100.00
2024-01-29T23:42:37.614Z,100.00
2024-01-29T23:45:07.113Z,100.00
2024-01-29T23:47:35.276Z,100.00
2024-01-29T23:50:03.775Z,100.00
2024-01-29T23:52:32.070Z,100.00
2024-01-29T23:55:02.166Z,100.00
